createdAt,value
2022-11-27T00:01:45.099Z,7.70
2022-11-27T00:04:46.825Z,7.70
2022-11-27T00:07:48.612Z,7.70
2022-11-27T00:10:50.621Z,7.60
2022-11-27T00:13:53.089Z,7.60
2022-11-27T00:16:54.832Z,7.60
2022-11-27T00:19:56.681Z,7.60
2022-11-27T00:22:58.422Z,7.50
2022-11-27T00:26:00.285Z,7.60
2022-11-27T00:29:02.264Z,7.60
2022-11-27T00:32:06.511Z,7.60
2022-11-27T00:35:08.709Z,7.50
2022-11-27T00:38:10.433Z,7.50
2022-11-27T00:41:16.014Z,7.60
2022-11-27T00:44:17.869Z,7.60
2022-11-27T00:47:19.852Z,7.50
2022-11-27T00:50:21.603Z,7.50
2022-11-27T00:53:23.898Z,7.50
2022-11-27T00:56:31.631Z,7.50
2022-11-27T00:59:33.469Z,7.50
2022-11-27T01:02:35.226Z,7.40
2022-11-27T01:05:37.496Z,7.40
2022-11-27T01:08:40.334Z,7.30
2022-11-27T01:11:42.815Z,7.40
2022-11-27T01:14:44.525Z,7.40
2022-11-27T01:17:46.580Z,7.40
2022-11-27T01:20:53.366Z,7.40
2022-11-27T01:23:55.485Z,7.40
2022-11-27T01:26:57.306Z,7.40
2022-11-27T01:30:00.285Z,7.30
2022-11-27T01:33:02.531Z,7.30
2022-11-27T01:36:07.021Z,7.40
2022-11-27T01:39:16.326Z,7.40
2022-11-27T01:42:18.219Z,7.40
2022-11-27T01:45:21.661Z,7.40
2022-11-27T01:48:23.559Z,7.40
2022-11-27T01:51:25.881Z,7.40
2022-11-27T01:54:39.186Z,7.40
2022-11-27T01:57:45.968Z,7.40
2022-11-27T02:00:47.762Z,7.50
2022-11-27T02:03:49.803Z,7.40
2022-11-27T02:06:51.640Z,7.40
2022-11-27T02:09:53.750Z,7.50
2022-11-27T02:13:02.198Z,7.40
2022-11-27T02:16:26.913Z,7.50
2022-11-27T02:19:56.231Z,7.50
2022-11-27T02:23:29.205Z,7.50
2022-11-27T02:26:49.745Z,7.40
2022-11-27T02:29:56.898Z,7.40
2022-11-27T02:33:02.119Z,7.50
2022-11-27T02:36:12.218Z,7.50
2022-11-27T02:39:20.993Z,7.40
2022-11-27T02:42:23.571Z,7.40
2022-11-27T02:45:32.631Z,7.40
2022-11-27T02:48:44.732Z,7.40
2022-11-27T02:51:57.850Z,7.50
2022-11-27T02:55:02.856Z,7.50
2022-11-27T02:58:10.691Z,7.50
2022-11-27T03:01:14.771Z,7.40
2022-11-27T03:04:20.170Z,7.50
2022-11-27T03:07:45.230Z,7.50
2022-11-27T03:10:51.715Z,7.60
2022-11-27T03:14:01.247Z,7.60
2022-11-27T03:17:06.455Z,7.60
2022-11-27T03:20:36.101Z,7.60
2022-11-27T03:23:38.627Z,7.60
2022-11-27T03:26:41.345Z,7.60
2022-11-27T03:29:46.790Z,7.70
2022-11-27T03:32:48.929Z,7.70
2022-11-27T03:35:50.688Z,7.70
2022-11-27T03:38:55.320Z,7.70
2022-11-27T03:42:22.515Z,7.70
2022-11-27T03:45:30.334Z,7.70
2022-11-27T03:49:18.295Z,7.70
2022-11-27T03:53:00.920Z,7.80
2022-11-27T03:56:33.953Z,7.70
2022-11-27T03:59:42.540Z,7.70
2022-11-27T04:02:48.151Z,7.70
2022-11-27T04:05:49.982Z,7.70
2022-11-27T04:08:51.818Z,7.70
2022-11-27T04:11:53.551Z,7.70
2022-11-27T04:14:55.550Z,7.70
2022-11-27T04:17:57.512Z,7.70
2022-11-27T04:20:59.490Z,7.80
2022-11-27T04:24:01.462Z,7.80
2022-11-27T04:27:03.248Z,7.80
2022-11-27T04:30:05.637Z,7.80
2022-11-27T04:33:08.318Z,7.70
2022-11-27T04:36:10.056Z,7.80
2022-11-27T04:39:13.365Z,7.80
2022-11-27T04:42:15.090Z,7.80
2022-11-27T04:45:17.265Z,7.90
2022-11-27T04:48:18.999Z,7.80
2022-11-27T04:51:20.750Z,7.80
2022-11-27T04:54:22.747Z,7.80
2022-11-27T04:57:24.609Z,7.80
2022-11-27T05:00:27.118Z,7.80
2022-11-27T05:03:29.156Z,7.90
2022-11-27T05:06:30.992Z,7.90
2022-11-27T05:09:32.870Z,7.80
2022-11-27T05:12:34.759Z,7.80
2022-11-27T05:15:36.470Z,7.90
2022-11-27T05:18:38.489Z,7.90
2022-11-27T05:21:41.529Z,7.90
2022-11-27T05:24:43.267Z,7.80
2022-11-27T05:27:45.103Z,7.80
2022-11-27T05:30:47.715Z,7.80
2022-11-27T05:33:50.579Z,7.90
2022-11-27T05:36:52.346Z,7.90
2022-11-27T05:39:54.313Z,7.90
2022-11-27T05:42:56.226Z,7.90
2022-11-27T05:45:58.070Z,7.90
2022-11-27T05:48:59.772Z,7.90
2022-11-27T05:52:04.680Z,7.90
2022-11-27T05:55:07.010Z,8.00
2022-11-27T05:58:08.714Z,8.00
2022-11-27T06:01:11.965Z,8.10
2022-11-27T06:04:13.661Z,8.00
2022-11-27T06:07:15.489Z,8.00
2022-11-27T06:10:17.359Z,8.00
2022-11-27T06:13:19.067Z,8.00
2022-11-27T06:16:23.496Z,8.00
2022-11-27T06:19:25.587Z,8.00
2022-11-27T06:22:27.513Z,8.00
2022-11-27T06:25:29.602Z,8.00
2022-11-27T06:28:31.301Z,8.00
2022-11-27T06:31:34.071Z,8.00
2022-11-27T06:34:36.047Z,7.90
2022-11-27T06:37:37.804Z,8.00
2022-11-27T06:40:39.818Z,8.00
2022-11-27T06:43:41.879Z,8.00
2022-11-27T06:46:43.575Z,8.00
2022-11-27T06:49:45.262Z,8.00
2022-11-27T06:52:46.990Z,8.00
2022-11-27T06:55:48.714Z,8.00
2022-11-27T06:58:55.665Z,8.10
2022-11-27T07:01:57.411Z,8.10
2022-11-27T07:04:59.176Z,8.10
2022-11-27T07:08:01.253Z,8.10
2022-11-27T07:11:04.666Z,8.10
2022-11-27T07:14:06.613Z,8.20
2022-11-27T07:17:08.443Z,8.10
2022-11-27T07:20:10.695Z,8.20
2022-11-27T07:23:12.682Z,8.20
2022-11-27T07:26:17.825Z,8.20
2022-11-27T07:29:19.668Z,8.20
2022-11-27T07:32:22.282Z,8.30
2022-11-27T07:35:24.033Z,8.20
2022-11-27T07:38:26.151Z,8.30
2022-11-27T07:41:33.409Z,8.30
2022-11-27T07:44:35.901Z,8.40
2022-11-27T07:47:38.774Z,8.40
2022-11-27T07:50:41.000Z,8.30
2022-11-27T07:53:43.293Z,8.30
2022-11-27T07:56:45.296Z,8.20
2022-11-27T07:59:49.114Z,8.30
2022-11-27T08:02:50.843Z,8.20
2022-11-27T08:05:52.600Z,8.20
2022-11-27T08:08:56.698Z,8.20
2022-11-27T08:11:58.551Z,8.20
2022-11-27T08:15:00.584Z,8.30
2022-11-27T08:18:03.784Z,8.30
2022-11-27T08:21:05.920Z,8.30
2022-11-27T08:24:08.060Z,8.30
2022-11-27T08:27:10.696Z,8.30
2022-11-27T08:30:12.959Z,8.30
2022-11-27T08:33:14.989Z,8.20
2022-11-27T08:36:18.269Z,8.20
2022-11-27T08:39:20.482Z,8.20
2022-11-27T08:42:22.412Z,8.20
2022-11-27T08:45:24.465Z,8.30
2022-11-27T08:48:27.055Z,8.30
2022-11-27T08:51:29.010Z,8.40
2022-11-27T08:54:31.357Z,8.30
2022-11-27T08:57:33.289Z,8.40
2022-11-27T09:00:36.455Z,8.40
2022-11-27T09:03:38.724Z,8.40
2022-11-27T09:06:41.352Z,8.50
2022-11-27T09:09:44.117Z,8.40
2022-11-27T09:12:45.902Z,8.40
2022-11-27T09:15:47.740Z,8.40
2022-11-27T09:18:51.645Z,8.50
2022-11-27T09:21:53.390Z,8.50
2022-11-27T09:24:55.410Z,8.50
2022-11-27T09:27:57.209Z,8.50
2022-11-27T09:31:01.639Z,8.60
2022-11-27T09:34:05.031Z,8.50
2022-11-27T09:37:06.835Z,8.60
2022-11-27T09:40:14.995Z,8.50
2022-11-27T09:43:19.591Z,8.60
2022-11-27T09:46:37.328Z,8.60
2022-11-27T09:49:48.062Z,8.60
2022-11-27T09:53:12.072Z,8.60
2022-11-27T09:56:17.600Z,8.70
2022-11-27T09:59:23.077Z,8.70
2022-11-27T10:02:31.075Z,8.70
2022-11-27T10:05:43.602Z,8.70
2022-11-27T10:09:14.570Z,8.70
2022-11-27T10:12:42.788Z,8.70
2022-11-27T10:16:08.546Z,8.80
2022-11-27T10:19:35.729Z,8.80
2022-11-27T10:23:01.830Z,8.90
2022-11-27T10:26:34.030Z,8.90
2022-11-27T10:29:54.945Z,8.90
2022-11-27T10:32:59.862Z,8.90
2022-11-27T10:36:01.738Z,9.00
2022-11-27T10:39:06.830Z,9.00
2022-11-27T10:42:17.537Z,9.00
2022-11-27T10:45:52.544Z,9.00
2022-11-27T10:48:54.534Z,9.00
2022-11-27T10:51:56.614Z,9.00
2022-11-27T10:55:02.888Z,9.10
2022-11-27T10:58:32.357Z,9.00
2022-11-27T11:01:48.528Z,9.10
2022-11-27T11:05:09.179Z,9.10
2022-11-27T11:08:17.944Z,9.10
2022-11-27T11:11:26.367Z,9.20
2022-11-27T11:14:28.161Z,9.20
2022-11-27T11:17:40.815Z,9.30
2022-11-27T11:20:59.151Z,9.20
2022-11-27T11:24:06.455Z,9.30
2022-11-27T11:27:39.532Z,9.30
2022-11-27T11:30:41.382Z,9.40
2022-11-27T11:34:06.062Z,9.40
2022-11-27T11:37:28.389Z,9.40
2022-11-27T11:40:33.576Z,9.50
2022-11-27T11:43:37.499Z,9.50
2022-11-27T11:46:40.129Z,9.50
2022-11-27T11:49:42.135Z,9.60
2022-11-27T11:53:07.712Z,9.60
2022-11-27T11:56:31.244Z,9.70
2022-11-27T11:59:44.904Z,9.70
2022-11-27T12:03:20.961Z,9.60
2022-11-27T12:06:28.649Z,9.60
2022-11-27T12:10:02.082Z,9.60
2022-11-27T12:13:38.874Z,9.60
2022-11-27T12:17:07.389Z,9.50
2022-11-27T12:20:32.001Z,9.50
2022-11-27T12:24:07.040Z,9.50
2022-11-27T12:27:19.875Z,9.50
2022-11-27T12:30:26.559Z,9.60
2022-11-27T12:33:54.371Z,9.60
2022-11-27T12:37:29.654Z,9.50
2022-11-27T12:40:59.536Z,9.50
2022-11-27T12:44:01.679Z,9.50
2022-11-27T12:47:16.985Z,9.40
2022-11-27T12:50:42.698Z,9.40
2022-11-27T12:54:02.464Z,9.40
2022-11-27T12:57:13.521Z,9.40
2022-11-27T13:00:17.959Z,9.30
2022-11-27T13:03:30.779Z,9.40
2022-11-27T13:06:40.421Z,9.40
2022-11-27T13:09:57.895Z,9.40
2022-11-27T13:13:09.604Z,9.40
2022-11-27T13:16:22.313Z,9.40
2022-11-27T13:19:45.078Z,9.40
2022-11-27T13:22:47.495Z,9.40
2022-11-27T13:25:54.277Z,9.40
2022-11-27T13:29:27.893Z,9.40
2022-11-27T13:32:38.184Z,9.30
2022-11-27T13:35:42.724Z,9.30
2022-11-27T13:38:45.246Z,9.40
2022-11-27T13:41:48.463Z,9.30
2022-11-27T13:45:11.252Z,9.40
2022-11-27T13:48:41.829Z,9.30
2022-11-27T13:51:46.096Z,9.30
2022-11-27T13:54:56.237Z,9.30
2022-11-27T13:58:00.100Z,9.30
2022-11-27T14:01:22.566Z,9.30
2022-11-27T14:04:27.515Z,9.30
2022-11-27T14:08:02.453Z,9.30
2022-11-27T14:11:13.169Z,9.30
2022-11-27T14:14:19.449Z,9.30
2022-11-27T14:17:32.864Z,9.30
2022-11-27T14:20:45.164Z,9.30
2022-11-27T14:23:52.220Z,9.30
2022-11-27T14:26:54.918Z,9.30
2022-11-27T14:29:56.795Z,9.30
2022-11-27T14:32:59.344Z,9.30
2022-11-27T14:36:07.098Z,9.30
2022-11-27T14:39:22.190Z,9.30
2022-11-27T14:42:28.944Z,9.30
2022-11-27T14:45:31.471Z,9.30
2022-11-27T14:48:46.617Z,9.20
2022-11-27T14:51:51.200Z,9.20
2022-11-27T14:54:55.072Z,9.30
2022-11-27T14:57:57.131Z,9.30
2022-11-27T15:01:06.476Z,9.20
2022-11-27T15:04:27.453Z,9.20
2022-11-27T15:07:31.214Z,9.20
2022-11-27T15:10:38.696Z,9.20
2022-11-27T15:13:40.755Z,9.20
2022-11-27T15:16:49.351Z,9.20
2022-11-27T15:19:51.476Z,9.30
2022-11-27T15:22:55.964Z,9.20
2022-11-27T15:26:11.017Z,9.20
2022-11-27T15:29:36.786Z,9.20
2022-11-27T15:32:51.619Z,9.30
2022-11-27T15:36:14.344Z,9.20
2022-11-27T15:39:22.521Z,9.20
2022-11-27T15:42:26.345Z,9.20
2022-11-27T15:45:30.942Z,9.20
2022-11-27T15:48:32.800Z,9.30
2022-11-27T15:51:34.492Z,9.20
2022-11-27T15:54:36.235Z,9.30
2022-11-27T15:57:38.204Z,9.20
2022-11-27T16:00:40.651Z,9.10
2022-11-27T16:03:42.522Z,9.20
2022-11-27T16:06:44.245Z,9.20
2022-11-27T16:09:47.583Z,9.20
2022-11-27T16:12:49.285Z,9.20
2022-11-27T16:15:50.977Z,9.10
2022-11-27T16:18:57.066Z,9.10
2022-11-27T16:21:58.976Z,9.10
2022-11-27T16:25:00.704Z,9.10
2022-11-27T16:28:03.385Z,9.10
2022-11-27T16:31:08.946Z,9.00
2022-11-27T16:34:11.413Z,9.10
2022-11-27T16:37:18.098Z,9.10
2022-11-27T16:40:20.452Z,9.10
2022-11-27T16:43:22.125Z,9.00
2022-11-27T16:46:27.095Z,9.00
2022-11-27T16:49:29.317Z,9.00
2022-11-27T16:52:31.086Z,9.00
2022-11-27T16:55:33.338Z,9.00
2022-11-27T16:58:36.679Z,9.00
2022-11-27T17:01:40.867Z,8.90
2022-11-27T17:04:43.397Z,8.90
2022-11-27T17:07:45.521Z,8.90
2022-11-27T17:10:47.289Z,8.90
2022-11-27T17:13:49.554Z,8.90
2022-11-27T17:16:51.659Z,8.90
2022-11-27T17:20:00.258Z,9.00
2022-11-27T17:23:02.228Z,9.00
2022-11-27T17:26:11.197Z,8.90
2022-11-27T17:29:15.589Z,8.90
2022-11-27T17:32:18.292Z,8.90
2022-11-27T17:35:20.411Z,8.90
2022-11-27T17:38:22.167Z,8.80
2022-11-27T17:41:24.032Z,8.70
2022-11-27T17:44:25.983Z,8.70
2022-11-27T17:47:27.816Z,8.60
2022-11-27T17:50:29.610Z,8.70
2022-11-27T17:53:32.625Z,8.60
2022-11-27T17:56:35.057Z,8.50
2022-11-27T17:59:36.749Z,8.60
2022-11-27T18:02:38.566Z,8.60
2022-11-27T18:05:40.466Z,8.70
2022-11-27T18:08:43.136Z,8.70
2022-11-27T18:11:44.918Z,8.60
2022-11-27T18:14:46.723Z,8.60
2022-11-27T18:17:48.423Z,8.70
2022-11-27T18:20:51.274Z,8.70
2022-11-27T18:24:21.865Z,8.70
2022-11-27T18:27:17.388Z,8.70
2022-11-27T18:30:19.191Z,8.70
2022-11-27T18:33:21.456Z,8.70
2022-11-27T18:36:23.394Z,8.70
2022-11-27T18:39:25.951Z,8.80
2022-11-27T18:42:30.279Z,8.70
2022-11-27T18:45:33.664Z,8.70
2022-11-27T18:48:39.225Z,8.70
2022-11-27T18:51:41.192Z,8.70
2022-11-27T18:54:44.142Z,8.70
2022-11-27T18:57:46.552Z,8.60
2022-11-27T19:00:48.321Z,8.60
2022-11-27T19:03:50.439Z,8.50
2022-11-27T19:06:52.277Z,8.50
2022-11-27T19:09:54.318Z,8.50
2022-11-27T19:12:56.194Z,8.50
2022-11-27T19:15:58.026Z,8.50
2022-11-27T19:19:01.739Z,8.50
2022-11-27T19:22:03.523Z,8.60
2022-11-27T19:25:05.673Z,8.60
2022-11-27T19:28:08.802Z,8.60
2022-11-27T19:31:13.280Z,8.60
2022-11-27T19:34:15.092Z,8.70
2022-11-27T19:37:24.835Z,8.70
2022-11-27T19:40:38.658Z,8.80
2022-11-27T19:43:40.593Z,8.80
2022-11-27T19:46:44.621Z,8.80
2022-11-27T19:49:46.324Z,8.80
2022-11-27T19:52:48.119Z,8.90
2022-11-27T19:55:56.531Z,8.90
2022-11-27T19:58:58.386Z,8.90
2022-11-27T20:02:00.332Z,8.90
2022-11-27T20:05:02.968Z,9.00
2022-11-27T20:08:04.820Z,9.00
2022-11-27T20:11:08.453Z,9.00
2022-11-27T20:14:10.147Z,9.00
2022-11-27T20:17:11.852Z,9.00
2022-11-27T20:20:14.260Z,9.00
2022-11-27T20:23:16.325Z,9.00
2022-11-27T20:26:30.396Z,9.00
2022-11-27T20:29:32.514Z,9.00
2022-11-27T20:32:34.880Z,9.00
2022-11-27T20:35:41.826Z,9.00
2022-11-27T20:38:44.087Z,9.00
2022-11-27T20:41:46.132Z,9.00
2022-11-27T20:44:48.225Z,9.00
2022-11-27T20:47:50.011Z,9.10
2022-11-27T20:50:52.017Z,9.10
2022-11-27T20:53:54.118Z,9.00
2022-11-27T20:56:56.189Z,9.00
2022-11-27T20:59:57.933Z,9.10
2022-11-27T21:02:59.703Z,9.10
2022-11-27T21:06:01.657Z,9.20
2022-11-27T21:09:05.527Z,9.20
2022-11-27T21:12:07.585Z,9.20
2022-11-27T21:15:10.511Z,9.20
2022-11-27T21:18:12.725Z,9.30
2022-11-27T21:21:14.868Z,9.30
2022-11-27T21:24:18.002Z,9.30
2022-11-27T21:27:20.033Z,9.30
2022-11-27T21:30:21.957Z,9.30
2022-11-27T21:33:24.079Z,9.30
2022-11-27T21:36:28.977Z,9.30
2022-11-27T21:39:31.320Z,9.30
2022-11-27T21:42:33.115Z,9.30
2022-11-27T21:45:37.391Z,9.30
2022-11-27T21:48:42.214Z,9.40
2022-11-27T21:51:44.455Z,9.30
2022-11-27T21:54:46.527Z,9.30
2022-11-27T21:57:48.328Z,9.30
2022-11-27T22:00:51.125Z,9.30
2022-11-27T22:03:57.373Z,9.30
2022-11-27T22:06:59.112Z,9.30
2022-11-27T22:10:00.836Z,9.40
2022-11-27T22:13:02.826Z,9.40
2022-11-27T22:16:20.473Z,9.40
2022-11-27T22:19:22.668Z,9.40
2022-11-27T22:22:24.410Z,9.40
2022-11-27T22:25:26.987Z,9.40
2022-11-27T22:28:30.179Z,9.40
2022-11-27T22:31:35.103Z,9.40
2022-11-27T22:34:37.913Z,9.40
2022-11-27T22:37:40.363Z,9.40
2022-11-27T22:40:43.903Z,9.40
2022-11-27T22:43:46.164Z,9.40
2022-11-27T22:46:48.352Z,9.40
2022-11-27T22:49:50.311Z,9.40
2022-11-27T22:52:57.022Z,9.40
2022-11-27T22:56:08.638Z,9.40
2022-11-27T22:59:31.769Z,9.40
2022-11-27T23:02:34.164Z,9.30
2022-11-27T23:05:36.298Z,9.30
2022-11-27T23:08:46.854Z,9.40
2022-11-27T23:11:48.771Z,9.30
2022-11-27T23:14:50.721Z,9.40
2022-11-27T23:17:52.725Z,9.30
2022-11-27T23:20:54.720Z,9.30
2022-11-27T23:23:56.871Z,9.30
2022-11-27T23:26:58.645Z,9.30
2022-11-27T23:30:00.349Z,9.30
2022-11-27T23:33:02.696Z,9.30
2022-11-27T23:36:06.314Z,9.30
2022-11-27T23:39:10.947Z,9.30
2022-11-27T23:42:12.824Z,9.30
2022-11-27T23:45:14.756Z,9.30
2022-11-27T23:48:16.440Z,9.30
2022-11-27T23:51:20.666Z,9.30
2022-11-27T23:54:22.539Z,9.20
2022-11-27T23:57:24.352Z,9.20
